sensor_id;sensor_type;location;lat;lon;timestamp;P1;durP1;ratioP1;P2;durP2;ratioP2
8857;SDS011;4465;50.904;4.696;2024-03-23T00:54:58;11.82;;;2.92;;
8857;SDS011;4465;50.904;4.696;2024-03-23T00:57:24;15.27;;;2.75;;
8857;SDS011;4465;50.904;4.696;2024-03-23T00:59:52;19.25;;;3.58;;
8857;SDS011;4465;50.904;4.696;2024-03-23T01:02:18;12.60;;;2.95;;
8857;SDS011;4465;50.904;4.696;2024-03-23T01:04:47;14.95;;;2.70;;
8857;SDS011;4465;50.904;4.696;2024-03-23T01:07:15;11.23;;;2.72;;
8857;SDS011;4465;50.904;4.696;2024-03-23T01:09:46;15.40;;;3.65;;
8857;SDS011;4465;50.904;4.696;2024-03-23T01:12:11;13.80;;;2.58;;
8857;SDS011;4465;50.904;4.696;2024-03-23T01:14:37;14.85;;;3.10;;
8857;SDS011;4465;50.904;4.696;2024-03-23T01:17:03;15.43;;;3.42;;
8857;SDS011;4465;50.904;4.696;2024-03-23T01:19:29;15.93;;;3.22;;
8857;SDS011;4465;50.904;4.696;2024-03-23T01:21:55;16.02;;;3.22;;
8857;SDS011;4465;50.904;4.696;2024-03-23T01:24:21;14.60;;;3.25;;
8857;SDS011;4465;50.904;4.696;2024-03-23T01:26:50;14.30;;;3.70;;
8857;SDS011;4465;50.904;4.696;2024-03-23T01:29:17;12.20;;;4.00;;
8857;SDS011;4465;50.904;4.696;2024-03-23T01:31:43;18.15;;;3.88;;
8857;SDS011;4465;50.904;4.696;2024-03-23T01:34:09;13.98;;;3.85;;
8857;SDS011;4465;50.904;4.696;2024-03-23T01:36:37;14.80;;;3.88;;
8857;SDS011;4465;50.904;4.696;2024-03-23T01:39:04;12.98;;;4.25;;
8857;SDS011;4465;50.904;4.696;2024-03-23T01:41:30;15.82;;;4.32;;
8857;SDS011;4465;50.904;4.696;2024-03-23T01:43:56;22.10;;;4.88;;
8857;SDS011;4465;50.904;4.696;2024-03-23T01:46:31;19.13;;;4.53;;
8857;SDS011;4465;50.904;4.696;2024-03-23T01:48:57;18.73;;;4.45;;
8857;SDS011;4465;50.904;4.696;2024-03-23T01:51:27;12.90;;;4.20;;
8857;SDS011;4465;50.904;4.696;2024-03-23T01:53:53;13.55;;;4.15;;
8857;SDS011;4465;50.904;4.696;2024-03-23T01:56:21;16.95;;;4.15;;
8857;SDS011;4465;50.904;4.696;2024-03-23T01:58:47;16.20;;;3.92;;
8857;SDS011;4465;50.904;4.696;2024-03-23T02:01:13;28.00;;;4.70;;
8857;SDS011;4465;50.904;4.696;2024-03-23T02:03:39;20.30;;;4.38;;
8857;SDS011;4465;50.904;4.696;2024-03-23T02:06:09;21.50;;;4.28;;
8857;SDS011;4465;50.904;4.696;2024-03-23T02:08:37;16.70;;;4.47;;
8857;SDS011;4465;50.904;4.696;2024-03-23T02:11:04;13.67;;;3.77;;
8857;SDS011;4465;50.904;4.696;2024-03-23T02:13:32;15.05;;;3.95;;
8857;SDS011;4465;50.904;4.696;2024-03-23T02:15:58;15.68;;;4.55;;
8857;SDS011;4465;50.904;4.696;2024-03-23T02:18:26;12.02;;;3.75;;
8857;SDS011;4465;50.904;4.696;2024-03-23T02:20:52;16.98;;;3.50;;
8857;SDS011;4465;50.904;4.696;2024-03-23T02:23:18;10.38;;;3.38;;
8857;SDS011;4465;50.904;4.696;2024-03-23T02:25:44;15.85;;;4.45;;
8857;SDS011;4465;50.904;4.696;2024-03-23T02:28:10;21.15;;;4.50;;
8857;SDS011;4465;50.904;4.696;2024-03-23T02:30:36;17.15;;;3.83;;
8857;SDS011;4465;50.904;4.696;2024-03-23T02:33:02;18.23;;;4.30;;
8857;SDS011;4465;50.904;4.696;2024-03-23T02:35:29;13.45;;;4.40;;
8857;SDS011;4465;50.904;4.696;2024-03-23T02:37:55;25.67;;;5.22;;
8857;SDS011;4465;50.904;4.696;2024-03-23T02:40:23;13.38;;;4.80;;
8857;SDS011;4465;50.904;4.696;2024-03-23T02:42:50;18.38;;;5.05;;
8857;SDS011;4465;50.904;4.696;2024-03-23T02:45:22;12.88;;;4.20;;
8857;SDS011;4465;50.904;4.696;2024-03-23T02:47:48;15.48;;;5.28;;
8857;SDS011;4465;50.904;4.696;2024-03-23T02:50:20;17.63;;;5.90;;
8857;SDS011;4465;50.904;4.696;2024-03-23T02:52:46;19.65;;;6.30;;
8857;SDS011;4465;50.904;4.696;2024-03-23T02:55:12;16.42;;;5.35;;
8857;SDS011;4465;50.904;4.696;2024-03-23T02:57:40;22.48;;;6.45;;
8857;SDS011;4465;50.904;4.696;2024-03-23T03:00:07;19.63;;;6.88;;
8857;SDS011;4465;50.904;4.696;2024-03-23T03:02:36;31.20;;;7.93;;
8857;SDS011;4465;50.904;4.696;2024-03-23T03:05:03;25.90;;;7.40;;
8857;SDS011;4465;50.904;4.696;2024-03-23T03:07:30;29.85;;;7.35;;
8857;SDS011;4465;50.904;4.696;2024-03-23T03:09:57;29.15;;;7.45;;
8857;SDS011;4465;50.904;4.696;2024-03-23T03:12:25;24.23;;;7.57;;
8857;SDS011;4465;50.904;4.696;2024-03-23T03:14:52;19.77;;;6.35;;
8857;SDS011;4465;50.904;4.696;2024-03-23T03:17:18;24.20;;;5.90;;
8857;SDS011;4465;50.904;4.696;2024-03-23T03:19:44;24.80;;;6.20;;
8857;SDS011;4465;50.904;4.696;2024-03-23T03:22:13;16.73;;;6.30;;
8857;SDS011;4465;50.904;4.696;2024-03-23T03:24:38;22.20;;;6.28;;
8857;SDS011;4465;50.904;4.696;2024-03-23T03:27:07;26.27;;;7.13;;
8857;SDS011;4465;50.904;4.696;2024-03-23T03:29:33;23.90;;;5.50;;
8857;SDS011;4465;50.904;4.696;2024-03-23T03:32:01;14.15;;;4.88;;
8857;SDS011;4465;50.904;4.696;2024-03-23T03:34:28;22.92;;;4.95;;
8857;SDS011;4465;50.904;4.696;2024-03-23T03:36:58;19.63;;;5.07;;
8857;SDS011;4465;50.904;4.696;2024-03-23T03:39:25;16.92;;;5.55;;
8857;SDS011;4465;50.904;4.696;2024-03-23T03:41:50;25.48;;;5.75;;
8857;SDS011;4465;50.904;4.696;2024-03-23T03:44:19;20.95;;;5.20;;
8857;SDS011;4465;50.904;4.696;2024-03-23T03:46:45;19.75;;;6.15;;
8857;SDS011;4465;50.904;4.696;2024-03-23T03:49:10;17.35;;;5.43;;
8857;SDS011;4465;50.904;4.696;2024-03-23T03:51:36;16.00;;;4.88;;
8857;SDS011;4465;50.904;4.696;2024-03-23T03:54:02;14.57;;;5.15;;
8857;SDS011;4465;50.904;4.696;2024-03-23T03:56:28;11.20;;;5.03;;
8857;SDS011;4465;50.904;4.696;2024-03-23T03:58:57;13.60;;;5.10;;
8857;SDS011;4465;50.904;4.696;2024-03-23T04:01:25;16.02;;;5.40;;
8857;SDS011;4465;50.904;4.696;2024-03-23T04:03:53;19.65;;;4.90;;
8857;SDS011;4465;50.904;4.696;2024-03-23T04:06:19;14.43;;;4.85;;
8857;SDS011;4465;50.904;4.696;2024-03-23T04:08:47;22.73;;;5.50;;
8857;SDS011;4465;50.904;4.696;2024-03-23T04:11:13;15.05;;;5.57;;
8857;SDS011;4465;50.904;4.696;2024-03-23T04:13:39;22.23;;;5.72;;
8857;SDS011;4465;50.904;4.696;2024-03-23T04:16:07;20.50;;;5.40;;
8857;SDS011;4465;50.904;4.696;2024-03-23T04:18:35;17.27;;;5.07;;
8857;SDS011;4465;50.904;4.696;2024-03-23T04:21:01;23.27;;;5.90;;
8857;SDS011;4465;50.904;4.696;2024-03-23T04:23:28;18.35;;;4.97;;
8857;SDS011;4465;50.904;4.696;2024-03-23T04:25:54;21.60;;;5.75;;
8857;SDS011;4465;50.904;4.696;2024-03-23T04:28:19;30.83;;;6.32;;
8857;SDS011;4465;50.904;4.696;2024-03-23T04:30:47;16.70;;;5.57;;
8857;SDS011;4465;50.904;4.696;2024-03-23T04:33:16;20.05;;;6.55;;
8857;SDS011;4465;50.904;4.696;2024-03-23T04:35:44;23.60;;;6.68;;
8857;SDS011;4465;50.904;4.696;2024-03-23T04:38:14;16.58;;;6.00;;
8857;SDS011;4465;50.904;4.696;2024-03-23T04:40:42;21.55;;;5.85;;
8857;SDS011;4465;50.904;4.696;2024-03-23T04:43:08;18.10;;;5.20;;
8857;SDS011;4465;50.904;4.696;2024-03-23T04:45:34;32.83;;;6.70;;
8857;SDS011;4465;50.904;4.696;2024-03-23T04:48:03;24.83;;;5.68;;
8857;SDS011;4465;50.904;4.696;2024-03-23T04:50:29;18.08;;;5.40;;
8857;SDS011;4465;50.904;4.696;2024-03-23T04:52:57;20.67;;;6.35;;
8857;SDS011;4465;50.904;4.696;2024-03-23T04:55:25;17.92;;;5.63;;
8857;SDS011;4465;50.904;4.696;2024-03-23T04:57:53;23.27;;;5.63;;
8857;SDS011;4465;50.904;4.696;2024-03-23T05:00:19;21.05;;;5.45;;
8857;SDS011;4465;50.904;4.696;2024-03-23T05:02:45;20.88;;;5.90;;
8857;SDS011;4465;50.904;4.696;2024-03-23T05:05:11;19.27;;;5.15;;
8857;SDS011;4465;50.904;4.696;2024-03-23T05:07:37;19.60;;;5.15;;
8857;SDS011;4465;50.904;4.696;2024-03-23T05:10:06;12.30;;;5.20;;
8857;SDS011;4465;50.904;4.696;2024-03-23T05:12:35;20.90;;;5.35;;
8857;SDS011;4465;50.904;4.696;2024-03-23T05:15:05;15.18;;;5.72;;
8857;SDS011;4465;50.904;4.696;2024-03-23T05:17:32;18.60;;;4.90;;
8857;SDS011;4465;50.904;4.696;2024-03-23T05:19:58;16.88;;;5.30;;
8857;SDS011;4465;50.904;4.696;2024-03-23T05:22:24;15.77;;;4.85;;
8857;SDS011;4465;50.904;4.696;2024-03-23T05:24:50;16.70;;;5.45;;
8857;SDS011;4465;50.904;4.696;2024-03-23T05:27:16;23.13;;;4.95;;
8857;SDS011;4465;50.904;4.696;2024-03-23T05:29:42;18.25;;;4.72;;
8857;SDS011;4465;50.904;4.696;2024-03-23T05:32:08;19.75;;;5.18;;
8857;SDS011;4465;50.904;4.696;2024-03-23T05:34:37;10.35;;;4.47;;
8857;SDS011;4465;50.904;4.696;2024-03-23T05:37:03;12.32;;;4.75;;
8857;SDS011;4465;50.904;4.696;2024-03-23T05:39:32;14.75;;;4.38;;
8857;SDS011;4465;50.904;4.696;2024-03-23T05:42:00;13.77;;;4.80;;
8857;SDS011;4465;50.904;4.696;2024-03-23T05:44:26;19.13;;;4.43;;
8857;SDS011;4465;50.904;4.696;2024-03-23T05:46:52;17.90;;;4.70;;
8857;SDS011;4465;50.904;4.696;2024-03-23T05:49:18;17.77;;;4.72;;
8857;SDS011;4465;50.904;4.696;2024-03-23T05:51:44;14.88;;;4.38;;
8857;SDS011;4465;50.904;4.696;2024-03-23T05:54:10;20.00;;;4.75;;
8857;SDS011;4465;50.904;4.696;2024-03-23T05:56:38;17.90;;;4.47;;
8857;SDS011;4465;50.904;4.696;2024-03-23T05:59:04;24.88;;;5.47;;
8857;SDS011;4465;50.904;4.696;2024-03-23T06:01:30;16.48;;;4.95;;
8857;SDS011;4465;50.904;4.696;2024-03-23T06:04:00;14.40;;;5.32;;
8857;SDS011;4465;50.904;4.696;2024-03-23T06:06:27;19.95;;;5.63;;
8857;SDS011;4465;50.904;4.696;2024-03-23T06:08:55;14.63;;;4.65;;
8857;SDS011;4465;50.904;4.696;2024-03-23T06:11:23;21.55;;;4.75;;
8857;SDS011;4465;50.904;4.696;2024-03-23T06:13:49;18.38;;;5.07;;
8857;SDS011;4465;50.904;4.696;2024-03-23T06:16:17;17.92;;;4.78;;
8857;SDS011;4465;50.904;4.696;2024-03-23T06:18:50;13.57;;;4.32;;
8857;SDS011;4465;50.904;4.696;2024-03-23T06:21:20;19.30;;;4.60;;
8857;SDS011;4465;50.904;4.696;2024-03-23T06:23:51;18.50;;;4.85;;
8857;SDS011;4465;50.904;4.696;2024-03-23T06:26:19;13.05;;;4.65;;
8857;SDS011;4465;50.904;4.696;2024-03-23T06:28:46;14.73;;;3.95;;
8857;SDS011;4465;50.904;4.696;2024-03-23T06:31:13;14.75;;;3.72;;
8857;SDS011;4465;50.904;4.696;2024-03-23T06:33:39;13.63;;;4.57;;
8857;SDS011;4465;50.904;4.696;2024-03-23T06:36:11;16.60;;;4.15;;
8857;SDS011;4465;50.904;4.696;2024-03-23T06:38:37;22.52;;;5.28;;
8857;SDS011;4465;50.904;4.696;2024-03-23T06:41:04;13.50;;;3.67;;
8857;SDS011;4465;50.904;4.696;2024-03-23T06:43:30;16.05;;;3.90;;
8857;SDS011;4465;50.904;4.696;2024-03-23T06:45:56;11.52;;;4.00;;
8857;SDS011;4465;50.904;4.696;2024-03-23T06:48:22;14.32;;;4.05;;
8857;SDS011;4465;50.904;4.696;2024-03-23T06:50:48;23.33;;;4.00;;
8857;SDS011;4465;50.904;4.696;2024-03-23T06:53:14;15.25;;;3.55;;
8857;SDS011;4465;50.904;4.696;2024-03-23T06:55:41;20.38;;;3.88;;
8857;SDS011;4465;50.904;4.696;2024-03-23T06:58:07;20.90;;;3.47;;
8857;SDS011;4465;50.904;4.696;2024-03-23T07:00:35;15.18;;;3.60;;
8857;SDS011;4465;50.904;4.696;2024-03-23T07:03:01;15.77;;;3.38;;
8857;SDS011;4465;50.904;4.696;2024-03-23T07:05:29;15.32;;;3.05;;
8857;SDS011;4465;50.904;4.696;2024-03-23T07:07:55;13.73;;;3.28;;
8857;SDS011;4465;50.904;4.696;2024-03-23T07:10:21;17.77;;;3.15;;
8857;SDS011;4465;50.904;4.696;2024-03-23T07:12:49;9.32;;;2.85;;
8857;SDS011;4465;50.904;4.696;2024-03-23T07:15:17;14.18;;;2.92;;
8857;SDS011;4465;50.904;4.696;2024-03-23T07:17:46;13.40;;;3.20;;
8857;SDS011;4465;50.904;4.696;2024-03-23T07:20:15;20.17;;;2.70;;
8857;SDS011;4465;50.904;4.696;2024-03-23T07:22:41;14.43;;;3.17;;
8857;SDS011;4465;50.904;4.696;2024-03-23T07:25:07;18.58;;;2.83;;
8857;SDS011;4465;50.904;4.696;2024-03-23T07:27:35;15.23;;;2.80;;
8857;SDS011;4465;50.904;4.696;2024-03-23T07:30:01;14.65;;;2.80;;
8857;SDS011;4465;50.904;4.696;2024-03-23T07:32:27;19.45;;;3.67;;
8857;SDS011;4465;50.904;4.696;2024-03-23T07:34:53;20.48;;;3.28;;
8857;SDS011;4465;50.904;4.696;2024-03-23T07:37:19;20.05;;;3.45;;
8857;SDS011;4465;50.904;4.696;2024-03-23T07:39:45;19.77;;;2.80;;
8857;SDS011;4465;50.904;4.696;2024-03-23T07:42:14;11.77;;;2.45;;
8857;SDS011;4465;50.904;4.696;2024-03-23T07:44:40;8.73;;;2.25;;
8857;SDS011;4465;50.904;4.696;2024-03-23T07:47:05;10.77;;;2.80;;
8857;SDS011;4465;50.904;4.696;2024-03-23T07:49:32;11.32;;;2.50;;
8857;SDS011;4465;50.904;4.696;2024-03-23T07:52:00;6.95;;;1.92;;
8857;SDS011;4465;50.904;4.696;2024-03-23T07:54:28;5.80;;;1.73;;
8857;SDS011;4465;50.904;4.696;2024-03-23T07:56:56;8.73;;;2.00;;
8857;SDS011;4465;50.904;4.696;2024-03-23T07:59:24;7.40;;;1.77;;
8857;SDS011;4465;50.904;4.696;2024-03-23T08:01:53;9.95;;;2.10;;
8857;SDS011;4465;50.904;4.696;2024-03-23T08:04:22;11.35;;;2.40;;
8857;SDS011;4465;50.904;4.696;2024-03-23T08:06:48;7.90;;;2.38;;
8857;SDS011;4465;50.904;4.696;2024-03-23T08:09:14;15.18;;;3.38;;
8857;SDS011;4465;50.904;4.696;2024-03-23T08:11:40;17.00;;;3.15;;
8857;SDS011;4465;50.904;4.696;2024-03-23T08:14:09;10.50;;;3.13;;
8857;SDS011;4465;50.904;4.696;2024-03-23T08:16:35;13.75;;;3.03;;
8857;SDS011;4465;50.904;4.696;2024-03-23T08:19:01;9.40;;;3.10;;
8857;SDS011;4465;50.904;4.696;2024-03-23T08:21:30;11.10;;;2.85;;
8857;SDS011;4465;50.904;4.696;2024-03-23T08:23:56;14.45;;;3.28;;
8857;SDS011;4465;50.904;4.696;2024-03-23T08:26:22;19.48;;;2.85;;
8857;SDS011;4465;50.904;4.696;2024-03-23T08:28:48;19.33;;;3.50;;
8857;SDS011;4465;50.904;4.696;2024-03-23T08:31:14;16.88;;;2.60;;
8857;SDS011;4465;50.904;4.696;2024-03-23T08:33:40;9.77;;;2.50;;
8857;SDS011;4465;50.904;4.696;2024-03-23T08:36:10;11.27;;;2.58;;
8857;SDS011;4465;50.904;4.696;2024-03-23T08:38:39;23.05;;;3.35;;
8857;SDS011;4465;50.904;4.696;2024-03-23T08:41:07;11.30;;;2.90;;
8857;SDS011;4465;50.904;4.696;2024-03-23T08:43:37;18.63;;;2.95;;
8857;SDS011;4465;50.904;4.696;2024-03-23T08:48:34;9.88;;;2.58;;
8857;SDS011;4465;50.904;4.696;2024-03-23T08:51:01;14.18;;;2.30;;
8857;SDS011;4465;50.904;4.696;2024-03-23T08:53:28;15.88;;;2.50;;
8857;SDS011;4465;50.904;4.696;2024-03-23T08:55:55;8.77;;;2.30;;
8857;SDS011;4465;50.904;4.696;2024-03-23T08:58:25;15.80;;;2.92;;
8857;SDS011;4465;50.904;4.696;2024-03-23T09:00:55;16.45;;;3.35;;
8857;SDS011;4465;50.904;4.696;2024-03-23T09:03:25;18.60;;;3.22;;
8857;SDS011;4465;50.904;4.696;2024-03-23T09:05:51;7.55;;;2.33;;
8857;SDS011;4465;50.904;4.696;2024-03-23T09:08:18;11.70;;;3.95;;
8857;SDS011;4465;50.904;4.696;2024-03-23T09:10:44;12.50;;;2.90;;
8857;SDS011;4465;50.904;4.696;2024-03-23T09:13:10;19.58;;;3.08;;
8857;SDS011;4465;50.904;4.696;2024-03-23T09:15:45;9.02;;;2.72;;
8857;SDS011;4465;50.904;4.696;2024-03-23T09:18:16;14.50;;;2.90;;
8857;SDS011;4465;50.904;4.696;2024-03-23T09:20:44;13.82;;;2.65;;
8857;SDS011;4465;50.904;4.696;2024-03-23T09:23:10;8.45;;;2.83;;
8857;SDS011;4465;50.904;4.696;2024-03-23T09:25:38;12.43;;;2.35;;
8857;SDS011;4465;50.904;4.696;2024-03-23T09:28:07;17.73;;;2.92;;
8857;SDS011;4465;50.904;4.696;2024-03-23T09:30:34;13.57;;;2.58;;
8857;SDS011;4465;50.904;4.696;2024-03-23T09:33:12;12.73;;;2.33;;
8857;SDS011;4465;50.904;4.696;2024-03-23T09:35:41;5.78;;;2.00;;
8857;SDS011;4465;50.904;4.696;2024-03-23T09:38:10;9.90;;;2.15;;
8857;SDS011;4465;50.904;4.696;2024-03-23T09:40:42;9.82;;;2.25;;
8857;SDS011;4465;50.904;4.696;2024-03-23T09:43:11;6.10;;;1.80;;
8857;SDS011;4465;50.904;4.696;2024-03-23T09:45:39;12.00;;;2.30;;
8857;SDS011;4465;50.904;4.696;2024-03-23T09:48:09;14.98;;;2.38;;
8857;SDS011;4465;50.904;4.696;2024-03-23T09:50:38;18.10;;;2.95;;
8857;SDS011;4465;50.904;4.696;2024-03-23T09:53:10;4.25;;;1.95;;
8857;SDS011;4465;50.904;4.696;2024-03-23T09:55:40;12.15;;;1.98;;
8857;SDS011;4465;50.904;4.696;2024-03-23T10:00:36;16.88;;;2.63;;
8857;SDS011;4465;50.904;4.696;2024-03-23T10:03:03;11.85;;;2.50;;
8857;SDS011;4465;50.904;4.696;2024-03-23T10:05:36;10.02;;;2.35;;
8857;SDS011;4465;50.904;4.696;2024-03-23T10:10:44;9.55;;;2.30;;
8857;SDS011;4465;50.904;4.696;2024-03-23T10:13:11;11.02;;;2.50;;
8857;SDS011;4465;50.904;4.696;2024-03-23T10:15:55;11.38;;;2.92;;
8857;SDS011;4465;50.904;4.696;2024-03-23T10:18:22;11.88;;;2.35;;
8857;SDS011;4465;50.904;4.696;2024-03-23T10:21:31;11.52;;;2.78;;
8857;SDS011;4465;50.904;4.696;2024-03-23T10:23:44;6.75;;;2.30;;
8857;SDS011;4465;50.904;4.696;2024-03-23T10:26:21;6.10;;;2.17;;
8857;SDS011;4465;50.904;4.696;2024-03-23T10:28:58;12.10;;;2.50;;
8857;SDS011;4465;50.904;4.696;2024-03-23T10:31:32;7.63;;;2.30;;
8857;SDS011;4465;50.904;4.696;2024-03-23T10:33:58;6.70;;;1.73;;
8857;SDS011;4465;50.904;4.696;2024-03-23T10:36:26;6.40;;;2.05;;
8857;SDS011;4465;50.904;4.696;2024-03-23T10:38:52;13.93;;;2.53;;
8857;SDS011;4465;50.904;4.696;2024-03-23T10:43:48;9.73;;;2.43;;
8857;SDS011;4465;50.904;4.696;2024-03-23T10:46:15;9.10;;;2.92;;
8857;SDS011;4465;50.904;4.696;2024-03-23T10:48:43;8.20;;;2.15;;
8857;SDS011;4465;50.904;4.696;2024-03-23T10:51:09;9.68;;;2.75;;
8857;SDS011;4465;50.904;4.696;2024-03-23T10:53:36;5.70;;;2.20;;
8857;SDS011;4465;50.904;4.696;2024-03-23T10:56:02;7.50;;;2.20;;
8857;SDS011;4465;50.904;4.696;2024-03-23T10:58:33;7.28;;;2.42;;
8857;SDS011;4465;50.904;4.696;2024-03-23T11:01:05;5.22;;;2.33;;
8857;SDS011;4465;50.904;4.696;2024-03-23T11:06:02;6.35;;;1.67;;
8857;SDS011;4465;50.904;4.696;2024-03-23T11:13:47;8.20;;;1.90;;
8857;SDS011;4465;50.904;4.696;2024-03-23T11:16:27;4.82;;;1.67;;
8857;SDS011;4465;50.904;4.696;2024-03-23T11:19:33;3.28;;;1.30;;
8857;SDS011;4465;50.904;4.696;2024-03-23T11:22:01;8.93;;;1.80;;
8857;SDS011;4465;50.904;4.696;2024-03-23T11:24:28;7.63;;;1.95;;
8857;SDS011;4465;50.904;4.696;2024-03-23T11:26:56;6.28;;;2.70;;
8857;SDS011;4465;50.904;4.696;2024-03-23T11:29:25;7.28;;;2.45;;
8857;SDS011;4465;50.904;4.696;2024-03-23T11:31:54;6.63;;;2.70;;
8857;SDS011;4465;50.904;4.696;2024-03-23T11:34:23;5.88;;;2.28;;
8857;SDS011;4465;50.904;4.696;2024-03-23T11:36:49;4.70;;;1.65;;
8857;SDS011;4465;50.904;4.696;2024-03-23T11:39:16;4.78;;;1.15;;
8857;SDS011;4465;50.904;4.696;2024-03-23T11:41:55;6.45;;;1.55;;
8857;SDS011;4465;50.904;4.696;2024-03-23T11:44:27;2.45;;;0.90;;
8857;SDS011;4465;50.904;4.696;2024-03-23T11:46:53;6.45;;;1.00;;
8857;SDS011;4465;50.904;4.696;2024-03-23T11:49:21;3.58;;;1.08;;
8857;SDS011;4465;50.904;4.696;2024-03-23T11:51:48;7.35;;;1.02;;
8857;SDS011;4465;50.904;4.696;2024-03-23T11:54:15;5.70;;;0.90;;
8857;SDS011;4465;50.904;4.696;2024-03-23T11:56:53;2.63;;;0.70;;
8857;SDS011;4465;50.904;4.696;2024-03-23T12:02:00;4.80;;;0.82;;
8857;SDS011;4465;50.904;4.696;2024-03-23T12:04:31;3.78;;;1.20;;
8857;SDS011;4465;50.904;4.696;2024-03-23T12:10:04;6.75;;;1.10;;
8857;SDS011;4465;50.904;4.696;2024-03-23T12:12:31;4.15;;;0.95;;
8857;SDS011;4465;50.904;4.696;2024-03-23T12:15:01;4.72;;;1.05;;
8857;SDS011;4465;50.904;4.696;2024-03-23T12:17:28;5.00;;;1.25;;
8857;SDS011;4465;50.904;4.696;2024-03-23T12:19:54;2.58;;;0.75;;
8857;SDS011;4465;50.904;4.696;2024-03-23T12:22:22;3.60;;;1.30;;
8857;SDS011;4465;50.904;4.696;2024-03-23T12:24:49;4.68;;;1.00;;
8857;SDS011;4465;50.904;4.696;2024-03-23T12:27:15;3.63;;;1.13;;
8857;SDS011;4465;50.904;4.696;2024-03-23T12:29:42;5.72;;;0.88;;
8857;SDS011;4465;50.904;4.696;2024-03-23T12:32:13;5.95;;;1.00;;
8857;SDS011;4465;50.904;4.696;2024-03-23T12:34:42;5.38;;;0.80;;
8857;SDS011;4465;50.904;4.696;2024-03-23T12:37:08;3.03;;;0.88;;
8857;SDS011;4465;50.904;4.696;2024-03-23T12:39:37;12.50;;;1.85;;
8857;SDS011;4465;50.904;4.696;2024-03-23T12:42:03;3.92;;;1.00;;
8857;SDS011;4465;50.904;4.696;2024-03-23T12:44:29;2.22;;;0.63;;
8857;SDS011;4465;50.904;4.696;2024-03-23T12:46:58;2.08;;;0.50;;
8857;SDS011;4465;50.904;4.696;2024-03-23T12:49:26;4.55;;;0.52;;
8857;SDS011;4465;50.904;4.696;2024-03-23T12:51:55;4.82;;;0.90;;
8857;SDS011;4465;50.904;4.696;2024-03-23T12:54:22;6.13;;;0.60;;
8857;SDS011;4465;50.904;4.696;2024-03-23T12:56:50;3.40;;;0.77;;
8857;SDS011;4465;50.904;4.696;2024-03-23T12:59:16;3.00;;;0.95;;
8857;SDS011;4465;50.904;4.696;2024-03-23T13:01:45;3.05;;;0.73;;
8857;SDS011;4465;50.904;4.696;2024-03-23T13:04:11;5.00;;;0.85;;
8857;SDS011;4465;50.904;4.696;2024-03-23T13:06:37;5.90;;;0.80;;
8857;SDS011;4465;50.904;4.696;2024-03-23T13:09:06;3.70;;;0.88;;
8857;SDS011;4465;50.904;4.696;2024-03-23T13:11:32;8.65;;;0.98;;
8857;SDS011;4465;50.904;4.696;2024-03-23T13:14:00;5.78;;;1.42;;
8857;SDS011;4465;50.904;4.696;2024-03-23T13:16:26;2.95;;;0.90;;
8857;SDS011;4465;50.904;4.696;2024-03-23T13:18:52;3.65;;;0.77;;
8857;SDS011;4465;50.904;4.696;2024-03-23T13:21:18;3.72;;;0.98;;
8857;SDS011;4465;50.904;4.696;2024-03-23T13:23:47;4.03;;;1.00;;
8857;SDS011;4465;50.904;4.696;2024-03-23T13:26:16;3.75;;;1.13;;
8857;SDS011;4465;50.904;4.696;2024-03-23T13:28:44;4.13;;;1.20;;
8857;SDS011;4465;50.904;4.696;2024-03-23T13:31:10;6.60;;;1.58;;
8857;SDS011;4465;50.904;4.696;2024-03-23T13:33:36;8.20;;;1.42;;
8857;SDS011;4465;50.904;4.696;2024-03-23T13:36:02;5.75;;;1.27;;
8857;SDS011;4465;50.904;4.696;2024-03-23T13:38:30;7.53;;;1.60;;
8857;SDS011;4465;50.904;4.696;2024-03-23T13:40:56;6.97;;;1.40;;
8857;SDS011;4465;50.904;4.696;2024-03-23T13:43:26;3.05;;;1.08;;
8857;SDS011;4465;50.904;4.696;2024-03-23T13:48:21;7.07;;;1.17;;
8857;SDS011;4465;50.904;4.696;2024-03-23T13:50:56;6.38;;;1.33;;
8857;SDS011;4465;50.904;4.696;2024-03-23T13:53:26;10.73;;;2.00;;
8857;SDS011;4465;50.904;4.696;2024-03-23T13:55:52;6.43;;;1.10;;
8857;SDS011;4465;50.904;4.696;2024-03-23T13:58:18;3.50;;;1.08;;
8857;SDS011;4465;50.904;4.696;2024-03-23T14:00:47;6.25;;;1.15;;
8857;SDS011;4465;50.904;4.696;2024-03-23T14:03:13;4.32;;;0.95;;
8857;SDS011;4465;50.904;4.696;2024-03-23T14:05:40;4.80;;;1.10;;
8857;SDS011;4465;50.904;4.696;2024-03-23T14:08:08;6.53;;;1.10;;
8857;SDS011;4465;50.904;4.696;2024-03-23T14:10:35;6.07;;;0.93;;
8857;SDS011;4465;50.904;4.696;2024-03-23T14:13:05;2.28;;;0.90;;
8857;SDS011;4465;50.904;4.696;2024-03-23T14:15:31;4.88;;;1.05;;
8857;SDS011;4465;50.904;4.696;2024-03-23T14:17:59;5.80;;;1.10;;
8857;SDS011;4465;50.904;4.696;2024-03-23T14:20:25;8.90;;;1.30;;
8857;SDS011;4465;50.904;4.696;2024-03-23T14:22:53;6.57;;;1.95;;
8857;SDS011;4465;50.904;4.696;2024-03-23T14:25:19;3.90;;;1.25;;
8857;SDS011;4465;50.904;4.696;2024-03-23T14:27:49;9.82;;;1.88;;
8857;SDS011;4465;50.904;4.696;2024-03-23T14:30:15;5.88;;;1.35;;
8857;SDS011;4465;50.904;4.696;2024-03-23T14:32:41;8.70;;;1.30;;
8857;SDS011;4465;50.904;4.696;2024-03-23T14:35:07;5.43;;;1.33;;
8857;SDS011;4465;50.904;4.696;2024-03-23T14:37:37;4.50;;;1.10;;
8857;SDS011;4465;50.904;4.696;2024-03-23T14:40:03;6.43;;;1.77;;
8857;SDS011;4465;50.904;4.696;2024-03-23T14:42:30;8.40;;;1.50;;
8857;SDS011;4465;50.904;4.696;2024-03-23T14:45:01;7.47;;;1.33;;
8857;SDS011;4465;50.904;4.696;2024-03-23T14:47:27;9.63;;;1.90;;
8857;SDS011;4465;50.904;4.696;2024-03-23T14:49:53;5.70;;;1.48;;
8857;SDS011;4465;50.904;4.696;2024-03-23T14:52:19;6.22;;;1.55;;
8857;SDS011;4465;50.904;4.696;2024-03-23T14:54:45;12.98;;;1.95;;
8857;SDS011;4465;50.904;4.696;2024-03-23T14:57:12;4.65;;;1.17;;
8857;SDS011;4465;50.904;4.696;2024-03-23T14:59:40;7.05;;;1.42;;
8857;SDS011;4465;50.904;4.696;2024-03-23T15:02:07;4.22;;;1.40;;
8857;SDS011;4465;50.904;4.696;2024-03-23T15:04:33;7.78;;;1.60;;
8857;SDS011;4465;50.904;4.696;2024-03-23T15:06:59;5.10;;;1.20;;
8857;SDS011;4465;50.904;4.696;2024-03-23T15:09:28;7.50;;;1.83;;
8857;SDS011;4465;50.904;4.696;2024-03-23T15:11:54;4.32;;;1.40;;
8857;SDS011;4465;50.904;4.696;2024-03-23T15:14:21;6.67;;;1.40;;
8857;SDS011;4465;50.904;4.696;2024-03-23T15:16:50;5.35;;;1.42;;
8857;SDS011;4465;50.904;4.696;2024-03-23T15:19:19;6.85;;;1.42;;
8857;SDS011;4465;50.904;4.696;2024-03-23T15:21:45;8.43;;;2.25;;
8857;SDS011;4465;50.904;4.696;2024-03-23T15:24:11;7.30;;;1.52;;
8857;SDS011;4465;50.904;4.696;2024-03-23T15:26:39;6.63;;;1.50;;
8857;SDS011;4465;50.904;4.696;2024-03-23T15:29:06;7.80;;;1.60;;
8857;SDS011;4465;50.904;4.696;2024-03-23T15:31:37;8.73;;;1.80;;
8857;SDS011;4465;50.904;4.696;2024-03-23T15:34:03;7.07;;;1.80;;
8857;SDS011;4465;50.904;4.696;2024-03-23T15:36:30;8.90;;;1.40;;
8857;SDS011;4465;50.904;4.696;2024-03-23T15:38:56;5.60;;;1.17;;
8857;SDS011;4465;50.904;4.696;2024-03-23T15:41:24;8.20;;;1.40;;
8857;SDS011;4465;50.904;4.696;2024-03-23T15:43:53;4.35;;;1.38;;
8857;SDS011;4465;50.904;4.696;2024-03-23T15:46:23;7.00;;;1.35;;
8857;SDS011;4465;50.904;4.696;2024-03-23T15:48:52;4.32;;;1.38;;
8857;SDS011;4465;50.904;4.696;2024-03-23T15:53:47;3.88;;;1.08;;
8857;SDS011;4465;50.904;4.696;2024-03-23T15:56:13;1.85;;;0.90;;
8857;SDS011;4465;50.904;4.696;2024-03-23T15:58:42;5.20;;;2.05;;
8857;SDS011;4465;50.904;4.696;2024-03-23T16:01:10;5.95;;;1.30;;
8857;SDS011;4465;50.904;4.696;2024-03-23T16:03:39;7.32;;;1.38;;
8857;SDS011;4465;50.904;4.696;2024-03-23T16:06:05;5.13;;;1.88;;
8857;SDS011;4465;50.904;4.696;2024-03-23T16:11:04;6.90;;;1.63;;
8857;SDS011;4465;50.904;4.696;2024-03-23T16:13:36;6.30;;;1.70;;
8857;SDS011;4465;50.904;4.696;2024-03-23T16:16:02;7.05;;;1.77;;
8857;SDS011;4465;50.904;4.696;2024-03-23T16:18:31;5.28;;;1.70;;
8857;SDS011;4465;50.904;4.696;2024-03-23T16:21:01;6.30;;;2.65;;
8857;SDS011;4465;50.904;4.696;2024-03-23T16:23:29;9.63;;;2.50;;
8857;SDS011;4465;50.904;4.696;2024-03-23T16:25:57;7.68;;;2.25;;
8857;SDS011;4465;50.904;4.696;2024-03-23T16:28:28;12.25;;;3.10;;
8857;SDS011;4465;50.904;4.696;2024-03-23T16:33:24;5.40;;;1.98;;
8857;SDS011;4465;50.904;4.696;2024-03-23T16:36:06;3.75;;;1.90;;
8857;SDS011;4465;50.904;4.696;2024-03-23T16:38:42;5.75;;;1.95;;